sensor_id;sensor_type;location;lat;lon;timestamp;temperature;humidity
39347;DHT22;26262;49.836;6.632;2024-03-02T00:00:37;7.90;99.90
39347;DHT22;26262;49.836;6.632;2024-03-02T00:03:02;7.90;99.90
39347;DHT22;26262;49.836;6.632;2024-03-02T00:05:28;7.80;99.90
39347;DHT22;26262;49.836;6.632;2024-03-02T00:07:57;7.80;99.90
39347;DHT22;26262;49.836;6.632;2024-03-02T00:10:31;7.80;99.90
39347;DHT22;26262;49.836;6.632;2024-03-02T00:13:00;7.70;99.90
39347;DHT22;26262;49.836;6.632;2024-03-02T00:15:42;7.70;99.90
39347;DHT22;26262;49.836;6.632;2024-03-02T00:18:12;7.50;99.90
39347;DHT22;26262;49.836;6.632;2024-03-02T00:20:40;7.50;99.90
39347;DHT22;26262;49.836;6.632;2024-03-02T00:23:07;7.50;99.90
39347;DHT22;26262;49.836;6.632;2024-03-02T00:25:50;7.40;99.90
39347;DHT22;26262;49.836;6.632;2024-03-02T00:30:59;7.30;99.90
39347;DHT22;26262;49.836;6.632;2024-03-02T00:33:46;7.30;99.90
39347;DHT22;26262;49.836;6.632;2024-03-02T00:36:16;7.20;99.90
39347;DHT22;26262;49.836;6.632;2024-03-02T00:38:48;7.20;99.90
39347;DHT22;26262;49.836;6.632;2024-03-02T00:41:21;7.10;99.90
39347;DHT22;26262;49.836;6.632;2024-03-02T00:44:04;7.10;99.90
39347;DHT22;26262;49.836;6.632;2024-03-02T00:46:35;7.00;99.90
39347;DHT22;26262;49.836;6.632;2024-03-02T00:49:03;7.00;99.90
39347;DHT22;26262;49.836;6.632;2024-03-02T00:51:29;6.90;99.90
39347;DHT22;26262;49.836;6.632;2024-03-02T00:53:58;6.90;99.90
39347;DHT22;26262;49.836;6.632;2024-03-02T00:56:24;7.00;99.90
39347;DHT22;26262;49.836;6.632;2024-03-02T00:58:51;7.00;99.90
39347;DHT22;26262;49.836;6.632;2024-03-02T01:01:17;7.00;99.90
39347;DHT22;26262;49.836;6.632;2024-03-02T01:03:43;7.00;99.90
39347;DHT22;26262;49.836;6.632;2024-03-02T01:06:09;7.00;99.90
39347;DHT22;26262;49.836;6.632;2024-03-02T01:08:35;7.00;99.90
39347;DHT22;26262;49.836;6.632;2024-03-02T01:11:01;7.00;99.90
39347;DHT22;26262;49.836;6.632;2024-03-02T01:13:27;7.10;99.90
39347;DHT22;26262;49.836;6.632;2024-03-02T01:15:53;7.10;99.90
39347;DHT22;26262;49.836;6.632;2024-03-02T01:18:18;7.20;99.90
39347;DHT22;26262;49.836;6.632;2024-03-02T01:20:44;7.10;99.90
39347;DHT22;26262;49.836;6.632;2024-03-02T01:23:10;7.20;99.90
39347;DHT22;26262;49.836;6.632;2024-03-02T01:25:35;7.20;99.90
39347;DHT22;26262;49.836;6.632;2024-03-02T01:28:01;7.20;99.90
39347;DHT22;26262;49.836;6.632;2024-03-02T01:30:26;7.20;99.90
39347;DHT22;26262;49.836;6.632;2024-03-02T01:32:52;7.10;99.90
39347;DHT22;26262;49.836;6.632;2024-03-02T01:35:18;7.20;99.90
39347;DHT22;26262;49.836;6.632;2024-03-02T01:37:43;7.30;99.90
39347;DHT22;26262;49.836;6.632;2024-03-02T01:40:09;7.20;99.90
39347;DHT22;26262;49.836;6.632;2024-03-02T01:42:37;7.30;99.90
39347;DHT22;26262;49.836;6.632;2024-03-02T01:45:06;7.40;99.90
39347;DHT22;26262;49.836;6.632;2024-03-02T01:47:32;7.40;99.90
39347;DHT22;26262;49.836;6.632;2024-03-02T01:49:58;7.50;99.90
39347;DHT22;26262;49.836;6.632;2024-03-02T01:52:24;7.40;99.90
39347;DHT22;26262;49.836;6.632;2024-03-02T01:54:49;7.40;99.90
39347;DHT22;26262;49.836;6.632;2024-03-02T01:57:15;7.40;99.90
39347;DHT22;26262;49.836;6.632;2024-03-02T01:59:41;7.40;99.90
39347;DHT22;26262;49.836;6.632;2024-03-02T02:02:07;7.40;99.90
39347;DHT22;26262;49.836;6.632;2024-03-02T02:04:33;7.30;99.90
39347;DHT22;26262;49.836;6.632;2024-03-02T02:06:59;7.40;99.90
39347;DHT22;26262;49.836;6.632;2024-03-02T02:09:25;7.30;99.90
39347;DHT22;26262;49.836;6.632;2024-03-02T02:11:51;7.30;99.90
39347;DHT22;26262;49.836;6.632;2024-03-02T02:14:17;7.30;99.90
39347;DHT22;26262;49.836;6.632;2024-03-02T02:16:42;7.40;99.90
39347;DHT22;26262;49.836;6.632;2024-03-02T02:19:08;7.50;99.90
39347;DHT22;26262;49.836;6.632;2024-03-02T02:21:34;7.40;99.90
39347;DHT22;26262;49.836;6.632;2024-03-02T02:24:00;7.50;99.90
39347;DHT22;26262;49.836;6.632;2024-03-02T02:26:28;7.40;99.90
39347;DHT22;26262;49.836;6.632;2024-03-02T02:28:53;7.40;99.90
39347;DHT22;26262;49.836;6.632;2024-03-02T02:31:19;7.40;99.90
39347;DHT22;26262;49.836;6.632;2024-03-02T02:33:44;7.40;99.90
39347;DHT22;26262;49.836;6.632;2024-03-02T02:36:10;7.40;99.90
39347;DHT22;26262;49.836;6.632;2024-03-02T02:38:40;7.50;99.90
39347;DHT22;26262;49.836;6.632;2024-03-02T02:41:08;7.50;99.90
39347;DHT22;26262;49.836;6.632;2024-03-02T02:43:34;7.50;99.90
39347;DHT22;26262;49.836;6.632;2024-03-02T02:45:59;7.40;99.90
39347;DHT22;26262;49.836;6.632;2024-03-02T02:48:25;7.40;99.90
39347;DHT22;26262;49.836;6.632;2024-03-02T02:50:50;7.50;99.90
39347;DHT22;26262;49.836;6.632;2024-03-02T02:53:16;7.50;99.90
39347;DHT22;26262;49.836;6.632;2024-03-02T02:55:42;7.50;99.90
39347;DHT22;26262;49.836;6.632;2024-03-02T02:58:09;7.50;99.90
39347;DHT22;26262;49.836;6.632;2024-03-02T03:00:34;7.50;99.90
39347;DHT22;26262;49.836;6.632;2024-03-02T03:03:02;7.40;99.90
39347;DHT22;26262;49.836;6.632;2024-03-02T03:05:27;7.50;99.90
39347;DHT22;26262;49.836;6.632;2024-03-02T03:07:53;7.50;99.90
39347;DHT22;26262;49.836;6.632;2024-03-02T03:10:19;7.40;99.90
39347;DHT22;26262;49.836;6.632;2024-03-02T03:12:47;7.50;99.90
39347;DHT22;26262;49.836;6.632;2024-03-02T03:15:13;7.50;99.90
39347;DHT22;26262;49.836;6.632;2024-03-02T03:17:39;7.50;99.90
39347;DHT22;26262;49.836;6.632;2024-03-02T03:20:05;7.50;99.90
39347;DHT22;26262;49.836;6.632;2024-03-02T03:22:31;7.50;99.90
39347;DHT22;26262;49.836;6.632;2024-03-02T03:25:00;7.50;99.90
39347;DHT22;26262;49.836;6.632;2024-03-02T03:27:26;7.50;99.90
39347;DHT22;26262;49.836;6.632;2024-03-02T03:29:51;7.60;99.90
39347;DHT22;26262;49.836;6.632;2024-03-02T03:32:17;7.70;99.90
39347;DHT22;26262;49.836;6.632;2024-03-02T03:34:43;7.70;99.90
39347;DHT22;26262;49.836;6.632;2024-03-02T03:37:08;7.60;99.90
39347;DHT22;26262;49.836;6.632;2024-03-02T03:39:35;7.50;99.90
39347;DHT22;26262;49.836;6.632;2024-03-02T03:42:01;7.60;99.90
39347;DHT22;26262;49.836;6.632;2024-03-02T03:44:27;7.70;99.90
39347;DHT22;26262;49.836;6.632;2024-03-02T03:46:52;7.80;99.90
39347;DHT22;26262;49.836;6.632;2024-03-02T03:49:18;7.80;99.90
39347;DHT22;26262;49.836;6.632;2024-03-02T03:51:43;7.80;99.90
39347;DHT22;26262;49.836;6.632;2024-03-02T03:54:09;8.10;99.90
39347;DHT22;26262;49.836;6.632;2024-03-02T03:56:36;8.10;99.90
39347;DHT22;26262;49.836;6.632;2024-03-02T03:59:02;8.00;99.90
39347;DHT22;26262;49.836;6.632;2024-03-02T04:01:27;8.00;99.90
39347;DHT22;26262;49.836;6.632;2024-03-02T04:03:53;8.00;99.90
39347;DHT22;26262;49.836;6.632;2024-03-02T04:06:19;8.00;99.90
39347;DHT22;26262;49.836;6.632;2024-03-02T04:08:44;8.00;99.90
39347;DHT22;26262;49.836;6.632;2024-03-02T04:11:10;8.00;99.90
39347;DHT22;26262;49.836;6.632;2024-03-02T04:13:35;8.10;99.90
39347;DHT22;26262;49.836;6.632;2024-03-02T04:16:01;8.00;99.90
39347;DHT22;26262;49.836;6.632;2024-03-02T04:18:26;8.00;99.90
39347;DHT22;26262;49.836;6.632;2024-03-02T04:20:52;7.90;99.90
39347;DHT22;26262;49.836;6.632;2024-03-02T04:23:17;7.90;99.90
39347;DHT22;26262;49.836;6.632;2024-03-02T04:25:43;7.90;99.90
39347;DHT22;26262;49.836;6.632;2024-03-02T04:28:08;7.90;99.90
39347;DHT22;26262;49.836;6.632;2024-03-02T04:30:34;7.80;99.90
39347;DHT22;26262;49.836;6.632;2024-03-02T04:32:59;7.70;99.90
39347;DHT22;26262;49.836;6.632;2024-03-02T04:35:25;7.80;99.90
39347;DHT22;26262;49.836;6.632;2024-03-02T04:37:50;7.80;99.90
39347;DHT22;26262;49.836;6.632;2024-03-02T04:40:16;7.80;99.90
39347;DHT22;26262;49.836;6.632;2024-03-02T04:42:42;7.70;99.90
39347;DHT22;26262;49.836;6.632;2024-03-02T04:45:08;7.60;99.90
39347;DHT22;26262;49.836;6.632;2024-03-02T04:47:34;7.60;99.90
39347;DHT22;26262;49.836;6.632;2024-03-02T04:49:59;7.60;99.90
39347;DHT22;26262;49.836;6.632;2024-03-02T04:52:25;7.50;99.90
39347;DHT22;26262;49.836;6.632;2024-03-02T04:54:50;7.50;99.90
39347;DHT22;26262;49.836;6.632;2024-03-02T04:57:35;7.50;99.90
39347;DHT22;26262;49.836;6.632;2024-03-02T05:00:01;7.40;99.90
39347;DHT22;26262;49.836;6.632;2024-03-02T05:02:26;7.40;99.90
39347;DHT22;26262;49.836;6.632;2024-03-02T05:04:52;7.30;99.90
39347;DHT22;26262;49.836;6.632;2024-03-02T05:07:17;7.50;99.90
39347;DHT22;26262;49.836;6.632;2024-03-02T05:09:43;7.40;99.90
39347;DHT22;26262;49.836;6.632;2024-03-02T05:12:08;7.40;99.90
39347;DHT22;26262;49.836;6.632;2024-03-02T05:14:48;7.50;99.90
39347;DHT22;26262;49.836;6.632;2024-03-02T05:17:13;7.40;99.90
39347;DHT22;26262;49.836;6.632;2024-03-02T05:19:39;7.40;99.90
39347;DHT22;26262;49.836;6.632;2024-03-02T05:22:04;7.30;99.90
39347;DHT22;26262;49.836;6.632;2024-03-02T05:24:31;7.40;99.90
39347;DHT22;26262;49.836;6.632;2024-03-02T05:26:56;7.40;99.90
39347;DHT22;26262;49.836;6.632;2024-03-02T05:29:22;7.50;99.90
39347;DHT22;26262;49.836;6.632;2024-03-02T05:31:48;7.40;99.90
39347;DHT22;26262;49.836;6.632;2024-03-02T05:34:14;7.40;99.90
39347;DHT22;26262;49.836;6.632;2024-03-02T05:36:39;7.50;99.90
39347;DHT22;26262;49.836;6.632;2024-03-02T05:39:05;7.50;99.90
39347;DHT22;26262;49.836;6.632;2024-03-02T05:41:34;7.50;99.90
39347;DHT22;26262;49.836;6.632;2024-03-02T05:44:00;7.40;99.90
39347;DHT22;26262;49.836;6.632;2024-03-02T05:46:27;7.40;99.90
39347;DHT22;26262;49.836;6.632;2024-03-02T05:48:52;7.40;99.90
39347;DHT22;26262;49.836;6.632;2024-03-02T05:51:18;7.40;99.90
39347;DHT22;26262;49.836;6.632;2024-03-02T05:53:43;7.30;99.90
39347;DHT22;26262;49.836;6.632;2024-03-02T05:56:09;7.30;99.90
39347;DHT22;26262;49.836;6.632;2024-03-02T05:58:34;7.30;99.90
39347;DHT22;26262;49.836;6.632;2024-03-02T06:01:29;7.30;99.90
39347;DHT22;26262;49.836;6.632;2024-03-02T06:03:56;7.30;99.90
39347;DHT22;26262;49.836;6.632;2024-03-02T06:06:22;7.30;99.90
39347;DHT22;26262;49.836;6.632;2024-03-02T06:08:48;7.20;99.90
39347;DHT22;26262;49.836;6.632;2024-03-02T06:11:13;7.20;99.90
39347;DHT22;26262;49.836;6.632;2024-03-02T06:13:39;7.20;99.90
39347;DHT22;26262;49.836;6.632;2024-03-02T06:16:05;7.20;99.90
39347;DHT22;26262;49.836;6.632;2024-03-02T06:18:30;7.20;99.90
39347;DHT22;26262;49.836;6.632;2024-03-02T06:20:56;7.20;99.90
39347;DHT22;26262;49.836;6.632;2024-03-02T06:23:21;7.20;99.90
39347;DHT22;26262;49.836;6.632;2024-03-02T06:25:47;7.20;99.90
39347;DHT22;26262;49.836;6.632;2024-03-02T06:28:12;7.20;99.90
39347;DHT22;26262;49.836;6.632;2024-03-02T06:30:41;7.20;99.90
39347;DHT22;26262;49.836;6.632;2024-03-02T06:33:07;7.20;99.90
39347;DHT22;26262;49.836;6.632;2024-03-02T06:35:32;7.20;99.90
39347;DHT22;26262;49.836;6.632;2024-03-02T06:37:58;7.20;99.90
39347;DHT22;26262;49.836;6.632;2024-03-02T06:40:23;7.10;99.90
39347;DHT22;26262;49.836;6.632;2024-03-02T06:42:49;7.20;99.90
39347;DHT22;26262;49.836;6.632;2024-03-02T06:45:14;7.10;99.90
39347;DHT22;26262;49.836;6.632;2024-03-02T06:47:40;7.20;99.90
39347;DHT22;26262;49.836;6.632;2024-03-02T06:50:06;7.20;99.90
39347;DHT22;26262;49.836;6.632;2024-03-02T06:52:32;7.10;99.90
39347;DHT22;26262;49.836;6.632;2024-03-02T06:54:58;7.20;99.90
39347;DHT22;26262;49.836;6.632;2024-03-02T06:57:23;7.20;99.90
39347;DHT22;26262;49.836;6.632;2024-03-02T06:59:50;7.20;99.90
39347;DHT22;26262;49.836;6.632;2024-03-02T07:02:16;7.20;99.90
39347;DHT22;26262;49.836;6.632;2024-03-02T07:04:42;7.30;99.90
39347;DHT22;26262;49.836;6.632;2024-03-02T07:07:08;7.30;99.90
39347;DHT22;26262;49.836;6.632;2024-03-02T07:09:33;7.30;99.90
39347;DHT22;26262;49.836;6.632;2024-03-02T07:11:59;7.30;99.90
39347;DHT22;26262;49.836;6.632;2024-03-02T07:14:24;7.30;99.90
39347;DHT22;26262;49.836;6.632;2024-03-02T07:17:10;7.30;99.90
39347;DHT22;26262;49.836;6.632;2024-03-02T07:19:35;7.30;99.90
39347;DHT22;26262;49.836;6.632;2024-03-02T07:22:01;7.40;99.90
39347;DHT22;26262;49.836;6.632;2024-03-02T07:24:30;7.50;99.90
39347;DHT22;26262;49.836;6.632;2024-03-02T07:26:56;7.50;99.90
39347;DHT22;26262;49.836;6.632;2024-03-02T07:29:21;7.50;99.90
39347;DHT22;26262;49.836;6.632;2024-03-02T07:31:47;7.50;99.90
39347;DHT22;26262;49.836;6.632;2024-03-02T07:34:13;7.50;99.90
39347;DHT22;26262;49.836;6.632;2024-03-02T07:36:39;7.60;99.90
39347;DHT22;26262;49.836;6.632;2024-03-02T07:39:04;7.60;99.90
39347;DHT22;26262;49.836;6.632;2024-03-02T07:41:30;7.60;99.90
39347;DHT22;26262;49.836;6.632;2024-03-02T07:43:56;7.70;99.90
39347;DHT22;26262;49.836;6.632;2024-03-02T07:46:22;7.80;99.90
39347;DHT22;26262;49.836;6.632;2024-03-02T07:48:47;7.80;99.90
39347;DHT22;26262;49.836;6.632;2024-03-02T07:51:13;7.90;99.90
39347;DHT22;26262;49.836;6.632;2024-03-02T07:53:39;7.90;99.90
39347;DHT22;26262;49.836;6.632;2024-03-02T07:56:05;8.00;99.90
39347;DHT22;26262;49.836;6.632;2024-03-02T07:58:31;8.00;99.90
39347;DHT22;26262;49.836;6.632;2024-03-02T08:00:59;8.10;99.90
39347;DHT22;26262;49.836;6.632;2024-03-02T08:03:26;8.20;99.90
39347;DHT22;26262;49.836;6.632;2024-03-02T08:05:52;8.30;99.90
39347;DHT22;26262;49.836;6.632;2024-03-02T08:08:18;8.40;99.90
39347;DHT22;26262;49.836;6.632;2024-03-02T08:10:44;8.40;99.90
39347;DHT22;26262;49.836;6.632;2024-03-02T08:13:09;8.50;99.90
39347;DHT22;26262;49.836;6.632;2024-03-02T08:15:35;8.70;99.90
39347;DHT22;26262;49.836;6.632;2024-03-02T08:18:00;8.70;99.90
39347;DHT22;26262;49.836;6.632;2024-03-02T08:20:26;8.70;99.90
39347;DHT22;26262;49.836;6.632;2024-03-02T08:22:52;8.80;99.90
39347;DHT22;26262;49.836;6.632;2024-03-02T08:25:20;8.80;99.90
39347;DHT22;26262;49.836;6.632;2024-03-02T08:27:46;8.70;99.90
39347;DHT22;26262;49.836;6.632;2024-03-02T08:30:12;8.80;99.90
39347;DHT22;26262;49.836;6.632;2024-03-02T08:32:37;8.90;99.90
39347;DHT22;26262;49.836;6.632;2024-03-02T08:35:04;9.00;99.90
39347;DHT22;26262;49.836;6.632;2024-03-02T08:37:30;9.10;99.90
39347;DHT22;26262;49.836;6.632;2024-03-02T08:39:55;9.10;99.90
39347;DHT22;26262;49.836;6.632;2024-03-02T08:42:22;9.10;99.90
39347;DHT22;26262;49.836;6.632;2024-03-02T08:44:47;9.20;99.90
39347;DHT22;26262;49.836;6.632;2024-03-02T08:47:13;9.50;99.90
39347;DHT22;26262;49.836;6.632;2024-03-02T08:49:39;9.50;99.90
39347;DHT22;26262;49.836;6.632;2024-03-02T08:52:04;9.60;99.90
39347;DHT22;26262;49.836;6.632;2024-03-02T08:54:30;9.60;99.90
39347;DHT22;26262;49.836;6.632;2024-03-02T08:56:56;9.70;99.90
39347;DHT22;26262;49.836;6.632;2024-03-02T08:59:22;9.90;99.90
39347;DHT22;26262;49.836;6.632;2024-03-02T09:01:47;9.90;99.90
39347;DHT22;26262;49.836;6.632;2024-03-02T09:04:14;9.90;99.90
39347;DHT22;26262;49.836;6.632;2024-03-02T09:06:40;9.90;99.90
39347;DHT22;26262;49.836;6.632;2024-03-02T09:09:06;10.00;99.90
39347;DHT22;26262;49.836;6.632;2024-03-02T09:11:31;10.10;99.90
39347;DHT22;26262;49.836;6.632;2024-03-02T09:13:57;10.20;99.90
39347;DHT22;26262;49.836;6.632;2024-03-02T09:16:23;10.20;99.90
39347;DHT22;26262;49.836;6.632;2024-03-02T09:18:49;10.30;99.90
39347;DHT22;26262;49.836;6.632;2024-03-02T09:21:15;10.20;99.90
39347;DHT22;26262;49.836;6.632;2024-03-02T09:23:40;10.10;99.90
39347;DHT22;26262;49.836;6.632;2024-03-02T09:26:06;10.30;99.90
39347;DHT22;26262;49.836;6.632;2024-03-02T09:28:31;10.30;99.90
39347;DHT22;26262;49.836;6.632;2024-03-02T09:30:57;10.30;99.90
39347;DHT22;26262;49.836;6.632;2024-03-02T09:33:22;10.30;99.90
39347;DHT22;26262;49.836;6.632;2024-03-02T09:35:48;10.30;99.90
39347;DHT22;26262;49.836;6.632;2024-03-02T09:38:14;10.40;99.90
39347;DHT22;26262;49.836;6.632;2024-03-02T09:40:41;10.30;99.90
39347;DHT22;26262;49.836;6.632;2024-03-02T09:43:07;10.10;99.90
39347;DHT22;26262;49.836;6.632;2024-03-02T09:45:33;10.20;99.90
39347;DHT22;26262;49.836;6.632;2024-03-02T09:47:59;10.40;99.90
39347;DHT22;26262;49.836;6.632;2024-03-02T09:50:25;10.50;99.90
39347;DHT22;26262;49.836;6.632;2024-03-02T09:52:50;10.50;99.90
39347;DHT22;26262;49.836;6.632;2024-03-02T09:55:18;10.50;99.90
39347;DHT22;26262;49.836;6.632;2024-03-02T09:57:45;10.50;99.90
39347;DHT22;26262;49.836;6.632;2024-03-02T10:00:11;10.50;99.90
39347;DHT22;26262;49.836;6.632;2024-03-02T10:02:41;10.50;99.90
39347;DHT22;26262;49.836;6.632;2024-03-02T10:05:08;10.50;99.90
39347;DHT22;26262;49.836;6.632;2024-03-02T10:07:34;10.50;99.90
39347;DHT22;26262;49.836;6.632;2024-03-02T10:10:14;10.70;99.90
39347;DHT22;26262;49.836;6.632;2024-03-02T10:12:40;10.90;99.90
39347;DHT22;26262;49.836;6.632;2024-03-02T10:15:06;11.00;99.90
39347;DHT22;26262;49.836;6.632;2024-03-02T10:17:32;10.90;99.90
39347;DHT22;26262;49.836;6.632;2024-03-02T10:19:58;10.90;99.90
39347;DHT22;26262;49.836;6.632;2024-03-02T10:22:24;10.90;99.90
39347;DHT22;26262;49.836;6.632;2024-03-02T10:24:49;11.30;99.90
39347;DHT22;26262;49.836;6.632;2024-03-02T10:27:16;11.20;99.90
39347;DHT22;26262;49.836;6.632;2024-03-02T10:29:46;11.30;99.90
39347;DHT22;26262;49.836;6.632;2024-03-02T10:32:12;11.20;99.90
39347;DHT22;26262;49.836;6.632;2024-03-02T10:34:43;11.10;99.90
39347;DHT22;26262;49.836;6.632;2024-03-02T10:37:10;11.30;99.90
39347;DHT22;26262;49.836;6.632;2024-03-02T10:39:37;11.50;99.90
39347;DHT22;26262;49.836;6.632;2024-03-02T10:42:06;11.50;99.90
39347;DHT22;26262;49.836;6.632;2024-03-02T10:44:32;11.40;99.90
39347;DHT22;26262;49.836;6.632;2024-03-02T10:47:02;11.60;99.90
39347;DHT22;26262;49.836;6.632;2024-03-02T10:49:30;11.70;99.90
39347;DHT22;26262;49.836;6.632;2024-03-02T10:51:59;11.80;99.90
39347;DHT22;26262;49.836;6.632;2024-03-02T10:54:25;11.90;99.90
39347;DHT22;26262;49.836;6.632;2024-03-02T10:57:01;12.10;99.90
39347;DHT22;26262;49.836;6.632;2024-03-02T10:59:36;12.20;99.90
39347;DHT22;26262;49.836;6.632;2024-03-02T11:02:03;12.40;99.90
39347;DHT22;26262;49.836;6.632;2024-03-02T11:04:30;12.30;99.90
39347;DHT22;26262;49.836;6.632;2024-03-02T11:07:06;12.10;99.90
39347;DHT22;26262;49.836;6.632;2024-03-02T11:09:34;12.20;99.90
39347;DHT22;26262;49.836;6.632;2024-03-02T11:12:13;12.30;99.90
39347;DHT22;26262;49.836;6.632;2024-03-02T11:14:41;12.30;99.90
39347;DHT22;26262;49.836;6.632;2024-03-02T11:17:11;12.20;99.90
39347;DHT22;26262;49.836;6.632;2024-03-02T11:19:39;12.20;99.90
39347;DHT22;26262;49.836;6.632;2024-03-02T11:22:06;12.20;99.90
39347;DHT22;26262;49.836;6.632;2024-03-02T11:24:32;12.20;99.90
39347;DHT22;26262;49.836;6.632;2024-03-02T11:26:59;12.30;99.90
39347;DHT22;26262;49.836;6.632;2024-03-02T11:32:22;12.30;99.90
39347;DHT22;26262;49.836;6.632;2024-03-02T11:34:51;12.70;99.90
39347;DHT22;26262;49.836;6.632;2024-03-02T11:37:18;13.00;99.90
39347;DHT22;26262;49.836;6.632;2024-03-02T11:39:44;13.10;99.90
39347;DHT22;26262;49.836;6.632;2024-03-02T11:42:11;13.30;99.90
39347;DHT22;26262;49.836;6.632;2024-03-02T11:44:39;13.30;99.90
39347;DHT22;26262;49.836;6.632;2024-03-02T11:47:07;13.50;99.90
39347;DHT22;26262;49.836;6.632;2024-03-02T11:49:41;13.70;99.90
39347;DHT22;26262;49.836;6.632;2024-03-02T11:52:09;13.90;99.90
39347;DHT22;26262;49.836;6.632;2024-03-02T11:54:39;14.00;99.90
39347;DHT22;26262;49.836;6.632;2024-03-02T11:57:07;14.00;99.90
39347;DHT22;26262;49.836;6.632;2024-03-02T11:59:32;13.80;99.90
39347;DHT22;26262;49.836;6.632;2024-03-02T12:01:58;13.60;99.90
39347;DHT22;26262;49.836;6.632;2024-03-02T12:04:25;13.70;99.90
39347;DHT22;26262;49.836;6.632;2024-03-02T12:07:03;13.70;99.90
39347;DHT22;26262;49.836;6.632;2024-03-02T12:09:34;13.70;99.90
39347;DHT22;26262;49.836;6.632;2024-03-02T12:14:32;14.30;99.90
39347;DHT22;26262;49.836;6.632;2024-03-02T12:16:57;15.10;99.90
39347;DHT22;26262;49.836;6.632;2024-03-02T12:19:25;15.50;99.90
39347;DHT22;26262;49.836;6.632;2024-03-02T12:21:52;15.90;99.90
39347;DHT22;26262;49.836;6.632;2024-03-02T12:24:18;16.40;99.90
39347;DHT22;26262;49.836;6.632;2024-03-02T12:26:44;17.00;99.90
39347;DHT22;26262;49.836;6.632;2024-03-02T12:29:10;17.40;99.90
39347;DHT22;26262;49.836;6.632;2024-03-02T12:31:36;17.70;99.10
39347;DHT22;26262;49.836;6.632;2024-03-02T12:34:03;17.60;98.90
39347;DHT22;26262;49.836;6.632;2024-03-02T12:36:29;16.90;98.90
39347;DHT22;26262;49.836;6.632;2024-03-02T12:38:55;16.10;99.20
39347;DHT22;26262;49.836;6.632;2024-03-02T12:41:21;15.90;99.90
39347;DHT22;26262;49.836;6.632;2024-03-02T12:43:46;15.50;99.90
39347;DHT22;26262;49.836;6.632;2024-03-02T12:46:12;15.20;99.90
39347;DHT22;26262;49.836;6.632;2024-03-02T12:48:38;14.90;99.90
39347;DHT22;26262;49.836;6.632;2024-03-02T12:51:06;14.60;99.90
39347;DHT22;26262;49.836;6.632;2024-03-02T12:53:32;14.50;99.90
39347;DHT22;26262;49.836;6.632;2024-03-02T12:55:57;14.50;99.90
39347;DHT22;26262;49.836;6.632;2024-03-02T12:58:23;14.60;99.90
39347;DHT22;26262;49.836;6.632;2024-03-02T13:00:49;14.70;99.90
39347;DHT22;26262;49.836;6.632;2024-03-02T13:03:14;14.60;99.90
39347;DHT22;26262;49.836;6.632;2024-03-02T13:05:48;14.50;99.90
39347;DHT22;26262;49.836;6.632;2024-03-02T13:08:15;14.50;99.90
39347;DHT22;26262;49.836;6.632;2024-03-02T13:10:40;14.50;99.90
39347;DHT22;26262;49.836;6.632;2024-03-02T13:13:06;14.40;99.90
39347;DHT22;26262;49.836;6.632;2024-03-02T13:15:33;14.40;99.90
39347;DHT22;26262;49.836;6.632;2024-03-02T13:17:59;14.40;99.90
39347;DHT22;26262;49.836;6.632;2024-03-02T13:20:32;14.40;99.90
39347;DHT22;26262;49.836;6.632;2024-03-02T13:22:58;14.50;99.90
39347;DHT22;26262;49.836;6.632;2024-03-02T13:25:23;14.70;99.90
39347;DHT22;26262;49.836;6.632;2024-03-02T13:27:49;14.90;99.90
39347;DHT22;26262;49.836;6.632;2024-03-02T13:30:15;14.80;99.90
39347;DHT22;26262;49.836;6.632;2024-03-02T13:32:40;14.70;99.90
39347;DHT22;26262;49.836;6.632;2024-03-02T13:35:06;14.60;99.90
39347;DHT22;26262;49.836;6.632;2024-03-02T13:37:32;14.60;99.90
39347;DHT22;26262;49.836;6.632;2024-03-02T13:39:58;14.50;99.90
39347;DHT22;26262;49.836;6.632;2024-03-02T13:42:24;14.40;99.90
39347;DHT22;26262;49.836;6.632;2024-03-02T13:44:49;14.40;99.90
39347;DHT22;26262;49.836;6.632;2024-03-02T13:47:16;14.40;99.90
39347;DHT22;26262;49.836;6.632;2024-03-02T13:49:42;14.60;99.90
39347;DHT22;26262;49.836;6.632;2024-03-02T13:52:12;14.90;99.90
39347;DHT22;26262;49.836;6.632;2024-03-02T13:54:46;15.20;99.90
39347;DHT22;26262;49.836;6.632;2024-03-02T13:57:12;15.20;99.90
39347;DHT22;26262;49.836;6.632;2024-03-02T13:59:39;14.90;99.90
39347;DHT22;26262;49.836;6.632;2024-03-02T14:02:05;14.80;99.90
39347;DHT22;26262;49.836;6.632;2024-03-02T14:04:32;14.60;99.90
39347;DHT22;26262;49.836;6.632;2024-03-02T14:06:58;14.50;99.90
39347;DHT22;26262;49.836;6.632;2024-03-02T14:09:24;14.40;99.90
39347;DHT22;26262;49.836;6.632;2024-03-02T14:11:50;14.40;99.90
39347;DHT22;26262;49.836;6.632;2024-03-02T14:14:17;14.20;99.90
39347;DHT22;26262;49.836;6.632;2024-03-02T14:16:43;14.10;99.90
39347;DHT22;26262;49.836;6.632;2024-03-02T14:19:08;14.00;99.90
39347;DHT22;26262;49.836;6.632;2024-03-02T14:21:35;14.00;99.90
39347;DHT22;26262;49.836;6.632;2024-03-02T14:24:01;14.00;99.90
39347;DHT22;26262;49.836;6.632;2024-03-02T14:26:27;14.00;99.90
39347;DHT22;26262;49.836;6.632;2024-03-02T14:28:53;13.80;99.90
39347;DHT22;26262;49.836;6.632;2024-03-02T14:31:19;13.80;99.90
39347;DHT22;26262;49.836;6.632;2024-03-02T14:33:45;13.60;99.90
39347;DHT22;26262;49.836;6.632;2024-03-02T14:36:11;13.60;99.90
39347;DHT22;26262;49.836;6.632;2024-03-02T14:38:37;13.50;99.90
39347;DHT22;26262;49.836;6.632;2024-03-02T14:41:03;13.40;99.90
39347;DHT22;26262;49.836;6.632;2024-03-02T14:43:29;13.50;99.90
39347;DHT22;26262;49.836;6.632;2024-03-02T14:45:55;13.50;99.90
39347;DHT22;26262;49.836;6.632;2024-03-02T14:48:21;13.50;99.90
39347;DHT22;26262;49.836;6.632;2024-03-02T14:50:46;13.50;99.90
39347;DHT22;26262;49.836;6.632;2024-03-02T14:53:12;13.60;99.90
39347;DHT22;26262;49.836;6.632;2024-03-02T14:55:38;13.60;99.90
39347;DHT22;26262;49.836;6.632;2024-03-02T14:58:03;13.50;99.90
39347;DHT22;26262;49.836;6.632;2024-03-02T15:00:29;13.50;99.90
39347;DHT22;26262;49.836;6.632;2024-03-02T15:02:54;13.60;99.90
39347;DHT22;26262;49.836;6.632;2024-03-02T15:05:20;13.60;99.90
39347;DHT22;26262;49.836;6.632;2024-03-02T15:07:45;13.60;99.90
39347;DHT22;26262;49.836;6.632;2024-03-02T15:10:11;13.50;99.90
39347;DHT22;26262;49.836;6.632;2024-03-02T15:12:37;13.50;99.90
39347;DHT22;26262;49.836;6.632;2024-03-02T15:15:03;13.40;99.90
39347;DHT22;26262;49.836;6.632;2024-03-02T15:17:29;13.40;99.90
39347;DHT22;26262;49.836;6.632;2024-03-02T15:19:55;13.40;99.90
39347;DHT22;26262;49.836;6.632;2024-03-02T15:22:20;13.30;99.90
39347;DHT22;26262;49.836;6.632;2024-03-02T15:24:46;13.40;99.90
39347;DHT22;26262;49.836;6.632;2024-03-02T15:27:11;13.40;99.90
39347;DHT22;26262;49.836;6.632;2024-03-02T15:29:38;13.30;99.90
39347;DHT22;26262;49.836;6.632;2024-03-02T15:32:04;13.30;99.90
39347;DHT22;26262;49.836;6.632;2024-03-02T15:34:33;13.30;99.90
39347;DHT22;26262;49.836;6.632;2024-03-02T15:36:59;13.30;99.90
39347;DHT22;26262;49.836;6.632;2024-03-02T15:39:25;13.20;99.90
39347;DHT22;26262;49.836;6.632;2024-03-02T15:41:51;13.10;99.90
39347;DHT22;26262;49.836;6.632;2024-03-02T15:44:17;13.10;99.90